Time;durP1;ratioP1;P1;durP2;ratioP2;P2;SDS_P1;SDS_P2;PMS_P1;PMS_P2;Temp;Humidity;BMP_temperature;BMP_pressure;BME280_temperature;BME280_humidity;BME280_pressure;Samples;Min_cycle;Max_cycle;Signal;HPM_P1;HPM_P2
2021/12/15 00:00:45;;;;;;;7.27;4.30;;;;;;;;;;4464957;32;20275;-58
2021/12/15 00:03:11;;;;;;;7.17;4.80;;;;;;;;;;4464043;32;20236;-58
2021/12/15 00:05:36;;;;;;;6.77;5.07;;;;;;;;;;4464607;32;20290;-57
2021/12/15 00:08:07;;;;;;;12.50;6.37;;;;;;;;;;4464459;32;20240;-57
2021/12/15 00:10:33;;;;;;;8.33;5.57;;;;;;;;;;4464333;32;20238;-57
2021/12/15 00:12:59;;;;;;;9.50;6.33;;;;;;;;;;4463970;32;20549;-58
2021/12/15 00:15:27;;;;;;;14.17;8.10;;;;;;;;;;4460352;32;20286;-58
2021/12/15 00:17:54;;;;;;;9.17;7.10;;;;;;;;;;4464711;32;20224;-57
2021/12/15 00:20:20;;;;;;;10.00;5.83;;;;;;;;;;4464302;32;20264;-58
2021/12/15 00:22:46;;;;;;;7.10;4.63;;;;;;;;;;4449465;32;20200;-58
2021/12/15 00:25:13;;;;;;;7.23;4.43;;;;;;;;;;4447954;32;20334;-60
2021/12/15 00:27:39;;;;;;;6.77;5.40;;;;;;;;;;4449114;32;20249;-57
2021/12/15 00:30:08;;;;;;;7.87;4.93;;;;;;;;;;4448046;32;20715;-57
2021/12/15 00:32:35;;;;;;;11.73;7.70;;;;;;;;;;4448913;32;20453;-57
2021/12/15 00:35:01;;;;;;;7.23;5.77;;;;;;;;;;4456029;32;20215;-58
2021/12/15 00:37:27;;;;;;;5.47;3.57;;;;;;;;;;4463605;32;20216;-57
2021/12/15 00:39:52;;;;;;;6.60;4.70;;;;;;;;;;4463473;32;20724;-57
2021/12/15 00:42:18;;;;;;;7.07;4.43;;;;;;;;;;4463636;32;20227;-57
2021/12/15 00:44:44;;;;;;;10.87;5.80;;;;;;;;;;4463239;32;20321;-58
2021/12/15 00:47:10;;;;;;;9.43;5.83;;;;;;;;;;4463945;32;20299;-58
2021/12/15 00:49:36;;;;;;;11.73;7.60;;;;;;;;;;4460616;32;20662;-56
2021/12/15 00:52:03;;;;;;;6.83;4.90;;;;;;;;;;4456082;32;20209;-58
2021/12/15 00:54:28;;;;;;;8.53;5.83;;;;;;;;;;4449040;32;20290;-58
2021/12/15 00:56:55;;;;;;;7.57;4.80;;;;;;;;;;4448520;32;20390;-57
2021/12/15 00:59:21;;;;;;;7.77;4.43;;;;;;;;;;4457068;32;20644;-58
2021/12/15 01:01:48;;;;;;;6.03;4.17;;;;;;;;;;4463031;32;20236;-57
2021/12/15 01:04:17;;;;;;;5.50;4.57;;;;;;;;;;4463393;32;20651;-58
2021/12/15 01:06:46;;;;;;;4.33;3.63;;;;;;;;;;4463253;32;20273;-59
2021/12/15 01:09:18;;;;;;;7.57;4.20;;;;;;;;;;4464395;32;20307;-58
2021/12/15 01:19:55;;;;;;;6.57;4.03;;;;;;;;;;4464042;32;20330;-59
2021/12/15 01:22:26;;;;;;;6.20;4.00;;;;;;;;;;4463863;32;20239;-58
2021/12/15 01:24:57;;;;;;;5.20;3.83;;;;;;;;;;4462662;32;20282;-58
2021/12/15 01:27:23;;;;;;;6.23;4.27;;;;;;;;;;4464051;32;20200;-57
2021/12/15 01:29:48;;;;;;;8.53;5.00;;;;;;;;;;4463991;32;20342;-58
2021/12/15 01:32:14;;;;;;;8.17;5.20;;;;;;;;;;4463986;32;20283;-58
2021/12/15 01:34:40;;;;;;;5.30;4.17;;;;;;;;;;4458438;32;20710;-58
2021/12/15 01:37:06;;;;;;;5.13;3.90;;;;;;;;;;4462785;32;20216;-58
2021/12/15 01:39:33;;;;;;;4.80;4.07;;;;;;;;;;4463756;32;21395;-58
2021/12/15 01:41:58;;;;;;;9.90;5.57;;;;;;;;;;4463732;32;20239;-57
2021/12/15 01:49:45;;;;;;;12.60;8.20;;;;;;;;;;4463839;32;20220;-57
2021/12/15 01:52:21;;;;;;;11.13;7.37;;;;;;;;;;4458943;32;20376;-58
2021/12/15 01:54:56;;;;;;;9.47;6.80;;;;;;;;;;4463897;32;20220;-57
2021/12/15 01:57:24;;;;;;;15.30;8.10;;;;;;;;;;4463661;32;20529;-58
2021/12/15 01:59:52;;;;;;;12.47;8.03;;;;;;;;;;4463849;32;20224;-57
2021/12/15 02:02:18;;;;;;;10.07;6.87;;;;;;;;;;4463380;32;20312;-57
2021/12/15 02:04:44;;;;;;;7.97;5.50;;;;;;;;;;4463577;32;20231;-57
2021/12/15 02:07:14;;;;;;;8.60;5.37;;;;;;;;;;4462459;32;20622;-58
2021/12/15 02:12:27;;;;;;;8.13;6.50;;;;;;;;;;4463052;32;20696;-57
2021/12/15 02:14:53;;;;;;;8.97;6.00;;;;;;;;;;4463462;32;20544;-58
2021/12/15 02:17:21;;;;;;;7.63;5.80;;;;;;;;;;4463921;32;20224;-58
2021/12/15 02:19:46;;;;;;;7.87;5.57;;;;;;;;;;4461773;32;20584;-57
2021/12/15 02:22:12;;;;;;;7.73;5.77;;;;;;;;;;4465197;32;20359;-58
2021/12/15 02:24:40;;;;;;;6.73;5.07;;;;;;;;;;4463709;32;20587;-57
2021/12/15 02:27:07;;;;;;;7.97;5.83;;;;;;;;;;4465335;32;20236;-57
2021/12/15 02:29:38;;;;;;;7.47;5.70;;;;;;;;;;4466205;32;20303;-57
2021/12/15 02:39:29;;;;;;;6.00;5.13;;;;;;;;;;4465824;32;20307;-58
2021/12/15 02:41:54;;;;;;;7.50;4.77;;;;;;;;;;4454948;32;20345;-58
2021/12/15 02:44:22;;;;;;;7.07;5.73;;;;;;;;;;4465498;32;20227;-57
2021/12/15 02:46:50;;;;;;;6.40;5.33;;;;;;;;;;4465228;32;20747;-57
2021/12/15 02:49:18;;;;;;;5.97;5.17;;;;;;;;;;4458656;32;20235;-57
2021/12/15 02:51:46;;;;;;;7.20;5.20;;;;;;;;;;4464592;32;20228;-57
2021/12/15 02:54:13;;;;;;;7.40;5.00;;;;;;;;;;4464662;32;20532;-58
2021/12/15 02:56:40;;;;;;;7.43;5.03;;;;;;;;;;4463974;32;20212;-57
2021/12/15 02:59:08;;;;;;;9.03;5.70;;;;;;;;;;4464992;32;20295;-57
2021/12/15 03:02:00;;;;;;;8.30;5.67;;;;;;;;;;4465084;32;20228;-58
2021/12/15 03:04:55;;;;;;;11.57;5.50;;;;;;;;;;4465171;32;20258;-58
2021/12/15 03:15:35;;;;;;;6.77;5.30;;;;;;;;;;4465324;32;20226;-57
2021/12/15 03:18:09;;;;;;;9.40;6.13;;;;;;;;;;4464677;32;20534;-58
2021/12/15 03:20:49;;;;;;;8.33;6.00;;;;;;;;;;4465757;32;20204;-58
2021/12/15 03:23:33;;;;;;;9.23;6.80;;;;;;;;;;4455142;32;20244;-58
2021/12/15 03:26:00;;;;;;;10.50;7.43;;;;;;;;;;4462981;32;20219;-58
2021/12/15 03:37:05;;;;;;;7.30;5.53;;;;;;;;;;4464861;32;20228;-57
2021/12/15 03:39:32;;;;;;;12.03;6.77;;;;;;;;;;4461190;32;20315;-58
2021/12/15 03:42:03;;;;;;;9.73;5.40;;;;;;;;;;4465423;32;20252;-57
2021/12/15 03:44:32;;;;;;;9.77;6.17;;;;;;;;;;4452735;32;20275;-57
2021/12/15 03:46:58;;;;;;;8.03;6.07;;;;;;;;;;4456516;32;20292;-58
2021/12/15 03:49:24;;;;;;;8.93;5.80;;;;;;;;;;4457979;32;20307;-57
2021/12/15 03:51:50;;;;;;;7.03;4.57;;;;;;;;;;4460184;32;20254;-58
2021/12/15 03:54:17;;;;;;;6.70;4.97;;;;;;;;;;4457940;32;20691;-58
2021/12/15 03:56:44;;;;;;;10.17;5.33;;;;;;;;;;4449359;32;20239;-56
2021/12/15 03:59:10;;;;;;;7.23;5.37;;;;;;;;;;4463560;32;20669;-58
2021/12/15 04:01:36;;;;;;;6.00;4.93;;;;;;;;;;4464449;32;20288;-57
2021/12/15 04:04:02;;;;;;;5.93;4.27;;;;;;;;;;4463201;32;20314;-57
2021/12/15 04:06:31;;;;;;;7.20;4.93;;;;;;;;;;4463601;32;20291;-58
2021/12/15 04:08:57;;;;;;;5.63;4.73;;;;;;;;;;4464770;32;20240;-57
2021/12/15 04:11:27;;;;;;;7.23;4.90;;;;;;;;;;4464531;32;20287;-58
2021/12/15 04:13:58;;;;;;;9.73;5.93;;;;;;;;;;4464168;32;20258;-58
2021/12/15 04:18:57;;;;;;;12.20;5.83;;;;;;;;;;4463850;32;20312;-57
2021/12/15 04:21:23;;;;;;;10.10;5.47;;;;;;;;;;4463930;32;20208;-57
2021/12/15 04:23:54;;;;;;;8.77;4.60;;;;;;;;;;4456648;32;20270;-57
2021/12/15 04:26:20;;;;;;;12.37;8.47;;;;;;;;;;4454262;32;20543;-58
2021/12/15 04:28:46;;;;;;;8.27;5.40;;;;;;;;;;4458812;32;20283;-58
2021/12/15 04:31:16;;;;;;;10.53;5.97;;;;;;;;;;4464678;32;20299;-59
2021/12/15 04:34:07;;;;;;;9.50;6.17;;;;;;;;;;4462787;32;20239;-58
2021/12/15 04:36:39;;;;;;;8.47;5.27;;;;;;;;;;4456874;32;21643;-58
2021/12/15 04:39:09;;;;;;;9.50;5.87;;;;;;;;;;4464217;32;20224;-58
2021/12/15 04:41:34;;;;;;;8.97;6.70;;;;;;;;;;4462624;32;20233;-59
2021/12/15 04:44:03;;;;;;;9.10;5.80;;;;;;;;;;4462987;32;20604;-57
2021/12/15 04:46:34;;;;;;;11.83;5.83;;;;;;;;;;4463994;32;20236;-58
2021/12/15 04:49:00;;;;;;;8.90;5.60;;;;;;;;;;4463556;32;20239;-57
2021/12/15 04:51:26;;;;;;;8.97;6.00;;;;;;;;;;4463341;32;20330;-58
2021/12/15 04:53:53;;;;;;;10.47;6.00;;;;;;;;;;4463905;32;20343;-58
2021/12/15 04:56:20;;;;;;;7.10;5.83;;;;;;;;;;4463123;32;20322;-56
2021/12/15 04:58:48;;;;;;;10.43;6.83;;;;;;;;;;4464109;32;20295;-57
2021/12/15 05:01:14;;;;;;;10.90;7.37;;;;;;;;;;4463959;32;20594;-58
2021/12/15 05:03:40;;;;;;;14.27;8.93;;;;;;;;;;4463247;32;20644;-57
2021/12/15 05:06:06;;;;;;;12.07;7.87;;;;;;;;;;4463296;32;20294;-59
2021/12/15 05:08:33;;;;;;;12.70;8.80;;;;;;;;;;4462989;32;20228;-58
2021/12/15 05:11:00;;;;;;;11.50;8.67;;;;;;;;;;4462262;32;20248;-58
2021/12/15 05:13:27;;;;;;;14.80;9.33;;;;;;;;;;4449358;32;20563;-60
2021/12/15 05:15:53;;;;;;;15.00;10.07;;;;;;;;;;4448421;32;20213;-58
2021/12/15 05:18:19;;;;;;;15.83;8.93;;;;;;;;;;4447930;32;20265;-58
2021/12/15 05:20:49;;;;;;;14.63;9.27;;;;;;;;;;4456176;32;20325;-58
2021/12/15 05:23:16;;;;;;;12.43;8.73;;;;;;;;;;4463605;32;20303;-58
2021/12/15 05:25:42;;;;;;;10.80;5.87;;;;;;;;;;4462718;32;20318;-58
2021/12/15 05:28:08;;;;;;;14.77;7.00;;;;;;;;;;4462409;32;20228;-57
2021/12/15 05:30:34;;;;;;;9.10;6.30;;;;;;;;;;4463394;32;20313;-59
2021/12/15 05:33:00;;;;;;;14.97;9.73;;;;;;;;;;4463384;32;20232;-57
2021/12/15 05:35:26;;;;;;;23.87;16.00;;;;;;;;;;4457618;32;20251;-58
2021/12/15 05:37:55;;;;;;;36.67;20.07;;;;;;;;;;4461799;32;20279;-57
2021/12/15 05:40:22;;;;;;;46.67;27.43;;;;;;;;;;4463102;32;20238;-57
2021/12/15 05:42:48;;;;;;;21.03;14.13;;;;;;;;;;4463094;32;20238;-59
2021/12/15 05:45:13;;;;;;;27.90;15.43;;;;;;;;;;4463033;32;20734;-58
2021/12/15 05:47:40;;;;;;;18.03;13.10;;;;;;;;;;4461378;32;20252;-58
2021/12/15 05:50:13;;;;;;;22.57;14.33;;;;;;;;;;4453239;32;20315;-57
2021/12/15 05:52:40;;;;;;;31.77;18.20;;;;;;;;;;4462020;32;20212;-58
2021/12/15 05:55:07;;;;;;;26.30;14.77;;;;;;;;;;4462861;32;20291;-58
2021/12/15 05:57:33;;;;;;;18.60;12.43;;;;;;;;;;4462174;32;20533;-58
2021/12/15 05:59:59;;;;;;;36.57;17.03;;;;;;;;;;4433394;32;20315;-59
2021/12/15 06:02:25;;;;;;;27.37;14.20;;;;;;;;;;4456618;32;20336;-57
2021/12/15 06:04:50;;;;;;;38.03;17.63;;;;;;;;;;4462215;32;20644;-57
2021/12/15 06:07:16;;;;;;;25.17;14.67;;;;;;;;;;4462212;32;20212;-58
2021/12/15 06:09:42;;;;;;;22.37;15.73;;;;;;;;;;4463180;32;20231;-58
2021/12/15 06:12:09;;;;;;;16.33;11.50;;;;;;;;;;4462867;32;20565;-57
2021/12/15 06:14:34;;;;;;;15.20;10.43;;;;;;;;;;4461962;32;20328;-57
2021/12/15 06:17:12;;;;;;;42.33;20.60;;;;;;;;;;4462867;32;20262;-58
2021/12/15 06:19:37;;;;;;;123.20;48.53;;;;;;;;;;4461132;32;20790;-59
2021/12/15 06:22:04;;;;;;;126.53;49.07;;;;;;;;;;4462971;32;20242;-58
2021/12/15 06:24:31;;;;;;;62.57;28.90;;;;;;;;;;4461837;32;20243;-58
2021/12/15 06:26:58;;;;;;;26.80;17.13;;;;;;;;;;4458843;32;20664;-57
2021/12/15 06:29:24;;;;;;;44.80;21.03;;;;;;;;;;4455239;32;20366;-57
2021/12/15 06:31:49;;;;;;;23.50;14.10;;;;;;;;;;4459222;32;20318;-58
2021/12/15 06:34:15;;;;;;;16.17;11.20;;;;;;;;;;4452468;32;20254;-58
2021/12/15 06:36:42;;;;;;;29.57;17.27;;;;;;;;;;4462806;32;20613;-58
2021/12/15 06:39:09;;;;;;;17.30;11.53;;;;;;;;;;4461579;32;20258;-59
2021/12/15 06:41:35;;;;;;;27.27;13.87;;;;;;;;;;4462930;32;20368;-58
2021/12/15 06:44:00;;;;;;;23.00;11.50;;;;;;;;;;4462499;32;20322;-58
2021/12/15 07:00:13;;;;;;;24.80;14.40;;;;;;;;;;4457499;32;20346;-57
2021/12/15 07:02:40;;;;;;;21.00;12.40;;;;;;;;;;4461655;32;20256;-57
2021/12/15 07:05:08;;;;;;;16.57;10.43;;;;;;;;;;4458519;32;20223;-60
2021/12/15 07:07:34;;;;;;;30.27;13.50;;;;;;;;;;4456014;32;20287;-57
2021/12/15 07:10:00;;;;;;;17.80;10.30;;;;;;;;;;4458451;32;20245;-59
2021/12/15 07:12:26;;;;;;;23.63;13.77;;;;;;;;;;4464382;32;20208;-57
2021/12/15 07:14:51;;;;;;;22.33;13.03;;;;;;;;;;4464958;32;20240;-58
2021/12/15 07:17:21;;;;;;;18.57;12.33;;;;;;;;;;4465138;32;20529;-57
2021/12/15 07:22:36;;;;;;;17.13;11.03;;;;;;;;;;4465601;32;20224;-57
2021/12/15 07:25:05;;;;;;;20.10;14.63;;;;;;;;;;4463992;32;20248;-58
2021/12/15 07:27:30;;;;;;;14.57;10.27;;;;;;;;;;4463417;32;20257;-57
2021/12/15 07:29:56;;;;;;;22.87;12.53;;;;;;;;;;4462696;32;20315;-58
2021/12/15 07:32:21;;;;;;;22.30;13.57;;;;;;;;;;4459896;32;20509;-58
2021/12/15 07:34:47;;;;;;;27.17;12.93;;;;;;;;;;4451714;32;20706;-57
2021/12/15 07:37:13;;;;;;;24.53;14.47;;;;;;;;;;4451459;32;20220;-58
2021/12/15 07:39:44;;;;;;;29.53;17.47;;;;;;;;;;4463590;32;20353;-57
2021/12/15 07:42:12;;;;;;;27.47;16.20;;;;;;;;;;4463883;32;20294;-59
2021/12/15 07:44:38;;;;;;;21.33;13.17;;;;;;;;;;4464485;32;20259;-58
2021/12/15 07:47:05;;;;;;;15.67;9.77;;;;;;;;;;4464690;32;20220;-58
2021/12/15 07:49:32;;;;;;;15.20;9.77;;;;;;;;;;4462989;32;20236;-59
2021/12/15 07:52:03;;;;;;;17.90;9.83;;;;;;;;;;4459714;32;20284;-59
2021/12/15 07:54:32;;;;;;;14.03;9.53;;;;;;;;;;4464528;32;20801;-59
2021/12/15 07:56:58;;;;;;;19.00;10.80;;;;;;;;;;4464428;32;20287;-58
2021/12/15 07:59:24;;;;;;;18.70;10.50;;;;;;;;;;4456552;32;20293;-57
2021/12/15 08:01:51;;;;;;;27.47;15.77;;;;;;;;;;4447914;32;20331;-57
2021/12/15 08:04:18;;;;;;;27.50;14.50;;;;;;;;;;4454194;32;20240;-58
2021/12/15 08:06:45;;;;;;;26.17;14.30;;;;;;;;;;4464120;32;20220;-57
2021/12/15 08:09:12;;;;;;;19.83;12.73;;;;;;;;;;4463866;32;20262;-57
2021/12/15 08:11:37;;;;;;;20.17;13.50;;;;;;;;;;4462550;32;20275;-58
2021/12/15 08:14:03;;;;;;;17.43;12.40;;;;;;;;;;4463319;32;20306;-58
2021/12/15 08:16:28;;;;;;;15.60;11.00;;;;;;;;;;4463343;32;20506;-57
2021/12/15 08:18:54;;;;;;;11.23;8.30;;;;;;;;;;4463611;32;20325;-58
2021/12/15 08:21:19;;;;;;;12.47;9.57;;;;;;;;;;4463252;32;20364;-58
2021/12/15 08:23:45;;;;;;;16.37;11.10;;;;;;;;;;4463818;32;20239;-59
2021/12/15 08:26:10;;;;;;;18.63;11.73;;;;;;;;;;4462935;32;20255;-57
2021/12/15 08:28:37;;;;;;;14.63;8.90;;;;;;;;;;4460492;32;20682;-58
2021/12/15 08:31:06;;;;;;;13.10;8.47;;;;;;;;;;4464000;32;20306;-58
2021/12/15 08:33:33;;;;;;;21.80;11.83;;;;;;;;;;4462986;32;20220;-57
2021/12/15 08:36:05;;;;;;;20.53;11.43;;;;;;;;;;4462987;32;20636;-59
2021/12/15 08:38:33;;;;;;;14.87;8.83;;;;;;;;;;4463470;32;20295;-59
2021/12/15 08:41:02;;;;;;;10.17;7.70;;;;;;;;;;4460861;32;20291;-58
2021/12/15 08:43:28;;;;;;;10.83;8.00;;;;;;;;;;4462707;32;20292;-58
2021/12/15 08:46:01;;;;;;;15.53;9.40;;;;;;;;;;4463421;32;20295;-60
2021/12/15 08:48:27;;;;;;;19.03;8.43;;;;;;;;;;4461698;32;20327;-58
2021/12/15 08:50:53;;;;;;;12.73;7.67;;;;;;;;;;4451260;32;20380;-58
2021/12/15 08:53:19;;;;;;;20.47;11.53;;;;;;;;;;4463221;32;20224;-58
2021/12/15 08:55:46;;;;;;;13.90;8.17;;;;;;;;;;4463546;32;20628;-58
2021/12/15 08:58:14;;;;;;;8.47;6.60;;;;;;;;;;4463618;32;20421;-58
2021/12/15 09:00:42;;;;;;;20.30;10.07;;;;;;;;;;4463804;32;20227;-58
2021/12/15 09:03:08;;;;;;;11.80;8.43;;;;;;;;;;4463326;32;20227;-58
2021/12/15 09:05:34;;;;;;;13.70;8.27;;;;;;;;;;4462919;32;20385;-59
2021/12/15 09:08:01;;;;;;;18.40;11.77;;;;;;;;;;4462897;32;20345;-58
2021/12/15 09:10:29;;;;;;;21.57;9.43;;;;;;;;;;4463327;32;20295;-58
2021/12/15 09:12:56;;;;;;;14.73;8.50;;;;;;;;;;4462473;32;20406;-57
2021/12/15 09:15:22;;;;;;;17.87;9.83;;;;;;;;;;4462868;32;20584;-58
2021/12/15 09:17:48;;;;;;;22.87;11.27;;;;;;;;;;4462657;32;20647;-58
2021/12/15 09:20:18;;;;;;;19.93;11.57;;;;;;;;;;4461349;32;20343;-57
2021/12/15 09:22:44;;;;;;;17.43;10.30;;;;;;;;;;4460580;32;20216;-57
2021/12/15 09:25:12;;;;;;;17.50;10.63;;;;;;;;;;4462771;32;20291;-58
2021/12/15 09:27:39;;;;;;;40.23;23.30;;;;;;;;;;4462413;32;20730;-58
2021/12/15 09:30:07;;;;;;;77.83;35.67;;;;;;;;;;4453206;32;20339;-58
2021/12/15 09:32:32;;;;;;;58.67;31.27;;;;;;;;;;4450030;32;20244;-58
2021/12/15 09:34:58;;;;;;;33.30;16.10;;;;;;;;;;4462725;32;20306;-58
2021/12/15 09:37:24;;;;;;;31.97;16.10;;;;;;;;;;4457577;32;20371;-58
2021/12/15 09:39:50;;;;;;;73.20;35.63;;;;;;;;;;4457139;32;20247;-58
2021/12/15 09:42:20;;;;;;;27.00;15.63;;;;;;;;;;4462487;32;20313;-57
2021/12/15 09:44:47;;;;;;;26.47;13.40;;;;;;;;;;4462761;32;20315;-58
2021/12/15 10:03:31;;;;;;;37.30;17.03;;;;;;;;;;4462496;32;20786;-58
2021/12/15 10:20:04;;;;;;;45.60;20.80;;;;;;;;;;4446321;32;20232;-57
2021/12/15 10:25:06;;;;;;;21.97;13.03;;;;;;;;;;4461685;32;20199;-59
2021/12/15 10:27:37;;;;;;;23.03;14.07;;;;;;;;;;4456528;32;20643;-58
2021/12/15 10:30:09;;;;;;;35.13;17.77;;;;;;;;;;4461664;32;20263;-59
2021/12/15 10:32:38;;;;;;;21.53;12.40;;;;;;;;;;4462024;32;20220;-59
2021/12/15 10:35:06;;;;;;;29.87;15.10;;;;;;;;;;4456919;32;20212;-58
2021/12/15 10:37:32;;;;;;;35.43;20.23;;;;;;;;;;4450950;32;20258;-57
2021/12/15 10:40:30;;;;;;;21.40;13.53;;;;;;;;;;4464330;32;20751;-58
2021/12/15 10:43:03;;;;;;;44.80;14.03;;;;;;;;;;4438093;32;20605;-58
2021/12/15 10:45:44;;;;;;;34.83;18.47;;;;;;;;;;4465223;32;20236;-57
2021/12/15 10:48:20;;;;;;;26.87;12.13;;;;;;;;;;4453797;32;20240;-59
2021/12/15 10:50:47;;;;;;;35.33;17.27;;;;;;;;;;4461487;32;20224;-59
2021/12/15 10:53:12;;;;;;;43.93;27.23;;;;;;;;;;4464699;32;20228;-57
2021/12/15 10:55:38;;;;;;;27.37;16.70;;;;;;;;;;4464731;32;20325;-57
2021/12/15 10:58:44;;;;;;;13.40;9.07;;;;;;;;;;4463800;32;20295;-58
2021/12/15 11:01:41;;;;;;;24.93;12.27;;;;;;;;;;4416132;32;20232;-58
2021/12/15 11:04:20;;;;;;;18.67;11.33;;;;;;;;;;4416199;32;20725;-58
2021/12/15 11:07:01;;;;;;;17.80;11.73;;;;;;;;;;4454903;32;20358;-57
2021/12/15 11:09:32;;;;;;;24.67;12.90;;;;;;;;;;4456849;32;20324;-58
2021/12/15 11:12:05;;;;;;;17.30;10.27;;;;;;;;;;4465040;32;20192;-58
2021/12/15 11:14:34;;;;;;;22.40;12.00;;;;;;;;;;4449860;32;20229;-57
2021/12/15 11:17:15;;;;;;;28.13;11.90;;;;;;;;;;4459711;32;20208;-58
2021/12/15 11:19:49;;;;;;;49.07;27.87;;;;;;;;;;4464783;32;20221;-57
2021/12/15 11:22:33;;;;;;;19.97;10.77;;;;;;;;;;4452101;32;20440;-57
2021/12/15 11:25:00;;;;;;;21.47;11.00;;;;;;;;;;4464092;32;20212;-58
2021/12/15 11:27:25;;;;;;;25.83;11.87;;;;;;;;;;4464426;32;20223;-60
2021/12/15 11:29:51;;;;;;;17.33;9.00;;;;;;;;;;4464697;32;20266;-57
2021/12/15 11:32:37;;;;;;;20.40;10.20;;;;;;;;;;4463428;32;20220;-58
2021/12/15 11:35:08;;;;;;;15.50;9.73;;;;;;;;;;4451207;32;20375;-58
2021/12/15 11:37:52;;;;;;;14.93;8.97;;;;;;;;;;4462249;32;20236;-57
2021/12/15 11:40:25;;;;;;;11.70;8.43;;;;;;;;;;4463839;32;20216;-59
2021/12/15 11:42:51;;;;;;;13.47;8.77;;;;;;;;;;4465204;32;20192;-58
2021/12/15 11:45:17;;;;;;;17.20;9.07;;;;;;;;;;4464592;32;20314;-59
2021/12/15 11:47:43;;;;;;;15.70;9.70;;;;;;;;;;4453722;32;20295;-57
2021/12/15 11:50:18;;;;;;;14.10;10.87;;;;;;;;;;4463001;32;20329;-58
2021/12/15 11:52:47;;;;;;;30.60;13.93;;;;;;;;;;4459760;32;20508;-57
2021/12/15 11:55:33;;;;;;;25.63;10.20;;;;;;;;;;4464576;32;20321;-57
2021/12/15 11:57:59;;;;;;;34.50;17.07;;;;;;;;;;4463135;32;20294;-58
2021/12/15 12:00:28;;;;;;;24.10;14.23;;;;;;;;;;4463729;32;20243;-57
2021/12/15 12:02:58;;;;;;;30.93;16.23;;;;;;;;;;4463043;32;20361;-58
2021/12/15 12:05:36;;;;;;;16.73;8.73;;;;;;;;;;4463911;32;20695;-58
2021/12/15 12:08:07;;;;;;;11.10;6.80;;;;;;;;;;4464368;32;20215;-58
2021/12/15 12:10:43;;;;;;;12.30;7.13;;;;;;;;;;4463114;32;20239;-58
2021/12/15 12:13:25;;;;;;;17.10;9.50;;;;;;;;;;4464137;32;20656;-57
2021/12/15 12:16:00;;;;;;;24.97;13.17;;;;;;;;;;4463612;32;20231;-57
2021/12/15 12:18:29;;;;;;;33.03;15.67;;;;;;;;;;4463861;32;20245;-57
2021/12/15 12:21:04;;;;;;;39.53;19.23;;;;;;;;;;4464329;32;20311;-57
2021/12/15 12:23:32;;;;;;;27.40;14.40;;;;;;;;;;4453217;32;20319;-56
2021/12/15 12:26:05;;;;;;;20.83;8.93;;;;;;;;;;4452954;32;20307;-57
2021/12/15 12:28:36;;;;;;;20.60;10.73;;;;;;;;;;4451194;32;20242;-57
2021/12/15 12:31:10;;;;;;;19.43;10.10;;;;;;;;;;4464177;32;20220;-57
2021/12/15 12:33:35;;;;;;;29.40;13.10;;;;;;;;;;4464024;32;20316;-58
2021/12/15 12:36:12;;;;;;;52.03;21.67;;;;;;;;;;4463571;32;20296;-55
2021/12/15 12:38:46;;;;;;;25.43;13.47;;;;;;;;;;4458224;32;20236;-57
2021/12/15 12:41:19;;;;;;;16.83;9.37;;;;;;;;;;4447470;32;20363;-56
2021/12/15 12:43:48;;;;;;;21.73;10.70;;;;;;;;;;4459728;32;20402;-56
2021/12/15 12:46:23;;;;;;;17.00;9.27;;;;;;;;;;4461400;32;20223;-57
2021/12/15 13:00:58;;;;;;;18.80;10.37;;;;;;;;;;4434518;32;20259;-56
2021/12/15 13:03:41;;;;;;;15.97;8.03;;;;;;;;;;4460593;32;20259;-57
2021/12/15 13:06:11;;;;;;;20.97;11.30;;;;;;;;;;4455640;32;20576;-57
2021/12/15 13:08:42;;;;;;;23.07;12.77;;;;;;;;;;4462628;32;20798;-57
2021/12/15 13:11:25;;;;;;;23.50;12.70;;;;;;;;;;4462561;32;20287;-57
2021/12/15 13:14:09;;;;;;;37.43;17.00;;;;;;;;;;4462822;32;20262;-57
2021/12/15 13:16:55;;;;;;;11.80;7.20;;;;;;;;;;4461690;32;20308;-56
2021/12/15 13:19:29;;;;;;;13.00;9.23;;;;;;;;;;4459071;32;20235;-57
2021/12/15 13:30:38;;;;;;;13.00;9.07;;;;;;;;;;4462437;32;20238;-57
2021/12/15 13:33:13;;;;;;;22.67;12.70;;;;;;;;;;4463046;32;20231;-57
2021/12/15 13:36:17;;;;;;;27.50;10.07;;;;;;;;;;4462633;32;20239;-59
2021/12/15 13:38:50;;;;;;;21.60;11.60;;;;;;;;;;4429234;32;20258;-56
2021/12/15 13:44:35;;;;;;;21.53;10.80;;;;;;;;;;4462477;32;20212;-56
2021/12/15 13:47:09;;;;;;;25.40;14.33;;;;;;;;;;4447189;32;20248;-57
2021/12/15 13:49:43;;;;;;;26.47;14.17;;;;;;;;;;4462932;32;20382;-57
2021/12/15 13:52:11;;;;;;;14.27;9.50;;;;;;;;;;4462548;32;20254;-57
2021/12/15 13:54:37;;;;;;;13.83;7.00;;;;;;;;;;4457285;32;20381;-58
2021/12/15 13:57:11;;;;;;;25.90;14.30;;;;;;;;;;4461505;32;20266;-57
2021/12/15 14:00:03;;;;;;;18.37;11.73;;;;;;;;;;4461307;32;20239;-59
2021/12/15 14:02:30;;;;;;;27.70;15.07;;;;;;;;;;4462542;32;20258;-57
2021/12/15 14:05:21;;;;;;;24.60;13.47;;;;;;;;;;4462779;32;20556;-57
2021/12/15 14:08:12;;;;;;;20.70;12.43;;;;;;;;;;4462502;32;20598;-57
2021/12/15 14:10:43;;;;;;;23.43;13.33;;;;;;;;;;4454207;32;20645;-57
2021/12/15 14:13:09;;;;;;;38.20;14.73;;;;;;;;;;4463127;32;20361;-57
2021/12/15 14:15:37;;;;;;;49.17;15.33;;;;;;;;;;4465271;32;20318;-57
2021/12/15 14:18:29;;;;;;;34.37;18.20;;;;;;;;;;4465815;32;20702;-58
2021/12/15 14:21:13;;;;;;;24.60;13.40;;;;;;;;;;4463877;32;20307;-58
2021/12/15 14:23:49;;;;;;;28.43;15.67;;;;;;;;;;4462176;32;20252;-57
2021/12/15 14:26:19;;;;;;;33.30;16.00;;;;;;;;;;4464366;32;20325;-58
2021/12/15 14:28:48;;;;;;;27.23;12.67;;;;;;;;;;4465524;32;20676;-57
2021/12/15 14:31:26;;;;;;;22.60;11.83;;;;;;;;;;4465491;32;20234;-58
2021/12/15 14:34:02;;;;;;;24.13;14.03;;;;;;;;;;4466051;32;20579;-58
2021/12/15 14:36:38;;;;;;;24.37;9.87;;;;;;;;;;4466309;32;20327;-56
2021/12/15 14:39:09;;;;;;;34.27;15.10;;;;;;;;;;4465152;32;20933;-56
2021/12/15 14:41:39;;;;;;;22.43;11.87;;;;;;;;;;4464965;32;20283;-57
2021/12/15 14:44:17;;;;;;;24.90;12.10;;;;;;;;;;4436321;32;20338;-59
2021/12/15 14:46:50;;;;;;;29.77;13.20;;;;;;;;;;4456889;32;20220;-58
2021/12/15 14:49:26;;;;;;;32.03;16.37;;;;;;;;;;4462541;32;20676;-59
2021/12/15 14:51:56;;;;;;;30.87;16.73;;;;;;;;;;4464673;32;20200;-58
2021/12/15 14:54:23;;;;;;;93.73;40.43;;;;;;;;;;4464858;32;20244;-58
2021/12/15 14:56:52;;;;;;;46.93;21.40;;;;;;;;;;4458634;32;20246;-58
2021/12/15 14:59:22;;;;;;;29.53;15.53;;;;;;;;;;4465630;32;20354;-58
2021/12/15 15:01:51;;;;;;;33.40;19.07;;;;;;;;;;4458460;32;20245;-57
2021/12/15 15:04:17;;;;;;;31.00;17.93;;;;;;;;;;4459480;32;20268;-58
2021/12/15 15:06:43;;;;;;;30.87;17.33;;;;;;;;;;4463442;32;20307;-58
2021/12/15 15:09:23;;;;;;;35.20;19.10;;;;;;;;;;4465554;32;20224;-57
2021/12/15 15:12:15;;;;;;;32.83;17.47;;;;;;;;;;4464451;32;20220;-58
2021/12/15 15:14:51;;;;;;;26.40;14.17;;;;;;;;;;4457162;32;20299;-58
2021/12/15 15:17:29;;;;;;;27.90;15.73;;;;;;;;;;4465195;32;20560;-58
2021/12/15 15:20:12;;;;;;;22.23;14.20;;;;;;;;;;4465588;32;20291;-58
2021/12/15 15:22:38;;;;;;;23.33;11.63;;;;;;;;;;4455432;32;20285;-57
2021/12/15 15:25:06;;;;;;;33.30;17.40;;;;;;;;;;4464956;32;20268;-58
2021/12/15 15:27:32;;;;;;;44.07;21.47;;;;;;;;;;4466523;32;20208;-58
2021/12/15 15:30:02;;;;;;;44.40;25.43;;;;;;;;;;4458782;32;20228;-58
2021/12/15 15:32:32;;;;;;;46.20;23.37;;;;;;;;;;4459772;32;20275;-58
2021/12/15 15:35:09;;;;;;;39.67;19.77;;;;;;;;;;4453507;32;20220;-58
2021/12/15 15:37:35;;;;;;;37.00;19.03;;;;;;;;;;4448635;32;20853;-58
2021/12/15 15:40:07;;;;;;;41.80;24.17;;;;;;;;;;4462528;32;20204;-57
2021/12/15 15:42:32;;;;;;;42.37;22.97;;;;;;;;;;4465445;32;20227;-57
2021/12/15 15:44:58;;;;;;;64.37;32.03;;;;;;;;;;4464678;32;20496;-57
2021/12/15 15:47:24;;;;;;;56.63;27.20;;;;;;;;;;4463950;32;20220;-58
2021/12/15 15:50:01;;;;;;;43.03;24.37;;;;;;;;;;4463875;32;20308;-58
2021/12/15 15:52:27;;;;;;;36.87;20.27;;;;;;;;;;4457098;32;20322;-59
2021/12/15 15:54:53;;;;;;;31.37;19.50;;;;;;;;;;4464650;32;20293;-58
2021/12/15 15:57:22;;;;;;;47.10;19.83;;;;;;;;;;4465190;32;20685;-58
2021/12/15 15:59:50;;;;;;;55.97;24.87;;;;;;;;;;4464479;32;20690;-57
2021/12/15 16:02:16;;;;;;;64.33;32.30;;;;;;;;;;4456468;32;20243;-58
2021/12/15 16:04:42;;;;;;;45.23;21.50;;;;;;;;;;4463223;32;20235;-57
2021/12/15 16:07:08;;;;;;;37.17;21.40;;;;;;;;;;4460915;32;20284;-57
2021/12/15 16:09:37;;;;;;;41.27;24.93;;;;;;;;;;4449675;32;20369;-58
2021/12/15 16:12:06;;;;;;;30.10;18.43;;;;;;;;;;4449656;32;20239;-58
2021/12/15 16:14:33;;;;;;;34.30;18.73;;;;;;;;;;4448418;32;20296;-57
2021/12/15 16:17:17;;;;;;;40.17;20.90;;;;;;;;;;4448651;32;20318;-60
2021/12/15 16:19:54;;;;;;;38.70;22.43;;;;;;;;;;4455739;32;20266;-57
2021/12/15 16:25:11;;;;;;;64.33;31.30;;;;;;;;;;4465038;32;20318;-57
2021/12/15 16:27:40;;;;;;;45.17;24.23;;;;;;;;;;4464706;32;20207;-57
2021/12/15 16:30:07;;;;;;;32.87;18.53;;;;;;;;;;4461570;32;20236;-56
2021/12/15 16:32:39;;;;;;;22.80;13.97;;;;;;;;;;4447937;32;20687;-57
2021/12/15 16:35:24;;;;;;;18.40;12.27;;;;;;;;;;4449569;32;20637;-58
2021/12/15 16:37:50;;;;;;;18.17;12.13;;;;;;;;;;4448402;32;20350;-57
2021/12/15 16:40:30;;;;;;;17.03;12.10;;;;;;;;;;4449343;32;20328;-57